Time;durP1;ratioP1;P1;durP2;ratioP2;P2;SDS_P1;SDS_P2;PMS_P1;PMS_P2;Temp;Humidity;BMP_temperature;BMP_pressure;BME280_temperature;BME280_humidity;BME280_pressure;Samples;Min_cycle;Max_cycle;Signal;HPM_P1;HPM_P2
2022/09/03 00:00:40;;;;;;;7.32;5.82;;;;;;;;;;4911919;28;20052;-71
2022/09/03 00:03:21;;;;;;;7.43;5.95;;;;;;;;;;4916555;28;20044;-71
2022/09/03 00:05:55;;;;;;;6.03;4.80;;;;;;;;;;4910035;28;20243;-72
2022/09/03 00:08:32;;;;;;;8.07;5.28;;;;;;;;;;4908452;28;20123;-71
2022/09/03 00:11:22;;;;;;;7.85;6.30;;;;;;;;;;4916098;28;20044;-71
2022/09/03 00:13:57;;;;;;;8.02;5.70;;;;;;;;;;4892670;28;20103;-71
2022/09/03 00:16:25;;;;;;;11.35;5.95;;;;;;;;;;4917408;28;20055;-71
2022/09/03 00:18:59;;;;;;;8.13;5.78;;;;;;;;;;4926360;28;20075;-71
2022/09/03 00:21:51;;;;;;;8.25;5.75;;;;;;;;;;4918587;28;20052;-71
2022/09/03 00:24:20;;;;;;;8.48;5.22;;;;;;;;;;4928502;28;20055;-71
2022/09/03 00:26:50;;;;;;;7.40;5.13;;;;;;;;;;4927129;28;20050;-71
2022/09/03 00:29:19;;;;;;;8.65;5.63;;;;;;;;;;4929535;28;20047;-71
2022/09/03 00:31:51;;;;;;;11.43;6.90;;;;;;;;;;4915765;28;20044;-72
2022/09/03 00:34:26;;;;;;;7.97;5.13;;;;;;;;;;4916573;28;20055;-71
2022/09/03 00:36:53;;;;;;;8.02;5.32;;;;;;;;;;4907921;28;20047;-71
2022/09/03 00:39:20;;;;;;;6.47;5.00;;;;;;;;;;4926794;28;20052;-70
2022/09/03 00:42:06;;;;;;;6.82;5.20;;;;;;;;;;4923413;28;20040;-71
2022/09/03 00:44:47;;;;;;;6.35;4.90;;;;;;;;;;4915110;28;20154;-71
2022/09/03 00:47:17;;;;;;;7.50;5.00;;;;;;;;;;4931553;28;20139;-71
2022/09/03 00:50:03;;;;;;;8.25;5.45;;;;;;;;;;4928433;28;20564;-71
2022/09/03 00:52:45;;;;;;;9.30;5.45;;;;;;;;;;4916128;28;20086;-71
2022/09/03 00:55:11;;;;;;;7.90;5.38;;;;;;;;;;4915233;28;20127;-71
2022/09/03 00:57:56;;;;;;;9.20;4.75;;;;;;;;;;4914607;28;20549;-71
2022/09/03 01:00:22;;;;;;;7.65;5.15;;;;;;;;;;4915931;28;20886;-71
2022/09/03 01:02:57;;;;;;;8.57;5.40;;;;;;;;;;4908123;28;20572;-71
2022/09/03 01:05:44;;;;;;;6.85;5.38;;;;;;;;;;4917875;28;20154;-71
2022/09/03 01:08:30;;;;;;;8.68;5.78;;;;;;;;;;4912369;28;20040;-71
2022/09/03 01:10:57;;;;;;;6.13;4.60;;;;;;;;;;4910375;28;20038;-71
2022/09/03 01:13:49;;;;;;;5.85;4.65;;;;;;;;;;4928587;28;20538;-71
2022/09/03 01:16:15;;;;;;;6.57;5.13;;;;;;;;;;4912104;28;20048;-71
2022/09/03 01:18:45;;;;;;;7.18;4.85;;;;;;;;;;4917444;28;20044;-72
2022/09/03 01:21:20;;;;;;;8.57;5.75;;;;;;;;;;4914787;28;20055;-71
2022/09/03 01:24:02;;;;;;;8.30;5.53;;;;;;;;;;4931015;28;20168;-74
2022/09/03 01:26:31;;;;;;;11.32;5.82;;;;;;;;;;4927511;28;20040;-71
2022/09/03 01:29:12;;;;;;;7.30;5.68;;;;;;;;;;4911786;28;20051;-72
2022/09/03 01:31:43;;;;;;;7.50;4.90;;;;;;;;;;4918717;28;20036;-71
2022/09/03 01:34:18;;;;;;;10.20;5.15;;;;;;;;;;4928985;28;20048;-72
2022/09/03 01:37:04;;;;;;;6.00;4.45;;;;;;;;;;4917333;28;20048;-72
2022/09/03 01:39:33;;;;;;;9.55;4.82;;;;;;;;;;4915821;28;21250;-71
2022/09/03 01:42:17;;;;;;;7.72;5.35;;;;;;;;;;4915573;28;20068;-71
2022/09/03 01:45:20;;;;;;;6.63;4.18;;;;;;;;;;4926537;28;20052;-71
2022/09/03 01:47:55;;;;;;;7.35;4.40;;;;;;;;;;4950534;28;20067;-71
2022/09/03 01:50:33;;;;;;;5.43;4.03;;;;;;;;;;4931256;28;20604;-71
2022/09/03 01:53:11;;;;;;;6.60;3.83;;;;;;;;;;4910717;28;20052;-71
2022/09/03 01:55:57;;;;;;;7.38;4.47;;;;;;;;;;4919600;28;20064;-71
2022/09/03 01:58:30;;;;;;;6.90;4.53;;;;;;;;;;4913313;28;20044;-71
2022/09/03 02:00:59;;;;;;;6.88;3.65;;;;;;;;;;4913945;28;20040;-72
2022/09/03 02:03:26;;;;;;;6.43;3.75;;;;;;;;;;4919295;28;20219;-72
2022/09/03 02:05:52;;;;;;;6.13;3.88;;;;;;;;;;4919029;28;20044;-71
2022/09/03 02:08:19;;;;;;;6.20;4.00;;;;;;;;;;4921205;28;20902;-72
2022/09/03 02:10:53;;;;;;;6.22;3.80;;;;;;;;;;4929722;28;20146;-71
2022/09/03 02:13:24;;;;;;;4.90;3.95;;;;;;;;;;4919280;28;20044;-71
2022/09/03 02:15:52;;;;;;;10.48;4.25;;;;;;;;;;4917867;28;20597;-71
2022/09/03 02:18:19;;;;;;;6.07;4.40;;;;;;;;;;4927671;28;20138;-71
2022/09/03 02:20:47;;;;;;;5.25;3.53;;;;;;;;;;4929359;28;20083;-71
2022/09/03 02:23:13;;;;;;;5.15;3.38;;;;;;;;;;4928742;28;20052;-71
2022/09/03 02:25:42;;;;;;;8.43;4.22;;;;;;;;;;4930875;28;20105;-70
2022/09/03 02:28:09;;;;;;;5.93;3.88;;;;;;;;;;4918319;28;20054;-71
2022/09/03 02:30:35;;;;;;;6.32;4.30;;;;;;;;;;4930006;28;20067;-70
2022/09/03 02:33:01;;;;;;;6.65;4.43;;;;;;;;;;4917896;28;20071;-71
2022/09/03 02:35:27;;;;;;;6.28;4.72;;;;;;;;;;4931543;28;20149;-71
2022/09/03 02:37:54;;;;;;;7.38;4.63;;;;;;;;;;4911575;28;20051;-71
2022/09/03 02:40:20;;;;;;;6.45;4.22;;;;;;;;;;4928218;28;20048;-71
2022/09/03 02:42:46;;;;;;;5.90;4.18;;;;;;;;;;4913878;28;20047;-71
2022/09/03 02:45:28;;;;;;;5.32;4.32;;;;;;;;;;4916691;28;20063;-71
2022/09/03 02:47:56;;;;;;;6.32;4.30;;;;;;;;;;4931733;28;20076;-71
2022/09/03 02:50:22;;;;;;;5.70;3.72;;;;;;;;;;4929846;28;20078;-71
2022/09/03 02:52:48;;;;;;;8.68;4.97;;;;;;;;;;4932194;28;20101;-71
2022/09/03 02:55:14;;;;;;;5.15;3.83;;;;;;;;;;4912816;28;20118;-72
2022/09/03 02:57:40;;;;;;;8.80;5.28;;;;;;;;;;4920196;28;20154;-70
2022/09/03 03:00:07;;;;;;;8.45;5.18;;;;;;;;;;4918248;28;20040;-71
2022/09/03 03:02:33;;;;;;;6.32;4.50;;;;;;;;;;4918510;28;20533;-71
2022/09/03 03:05:00;;;;;;;7.68;5.05;;;;;;;;;;4919775;28;21698;-71
2022/09/03 03:07:27;;;;;;;7.85;5.53;;;;;;;;;;4915285;28;20044;-71
2022/09/03 03:09:53;;;;;;;7.65;5.15;;;;;;;;;;4930352;28;20097;-71
2022/09/03 03:12:20;;;;;;;10.25;5.65;;;;;;;;;;4930882;28;20510;-71
2022/09/03 03:14:46;;;;;;;7.05;4.28;;;;;;;;;;4918839;28;20040;-71
2022/09/03 03:17:12;;;;;;;8.50;5.68;;;;;;;;;;4920318;28;20094;-71
2022/09/03 03:19:38;;;;;;;8.45;4.72;;;;;;;;;;4920206;28;20052;-71
2022/09/03 03:22:04;;;;;;;7.60;5.00;;;;;;;;;;4928800;28;20134;-72
2022/09/03 03:24:30;;;;;;;7.60;5.05;;;;;;;;;;4930081;28;20055;-71
2022/09/03 03:26:57;;;;;;;8.73;4.90;;;;;;;;;;4918159;28;20101;-71
2022/09/03 03:29:24;;;;;;;8.50;5.35;;;;;;;;;;4917117;28;20506;-71
2022/09/03 03:31:50;;;;;;;9.30;5.40;;;;;;;;;;4911748;28;20587;-70
2022/09/03 03:34:16;;;;;;;8.32;5.78;;;;;;;;;;4929071;28;20722;-71
2022/09/03 03:36:42;;;;;;;7.88;5.65;;;;;;;;;;4917780;28;20040;-71
2022/09/03 03:39:08;;;;;;;9.88;6.00;;;;;;;;;;4908791;28;20609;-71
2022/09/03 03:41:36;;;;;;;8.75;5.53;;;;;;;;;;4914579;28;20048;-71
2022/09/03 03:44:04;;;;;;;9.52;6.03;;;;;;;;;;4917327;28;20117;-71
2022/09/03 03:46:35;;;;;;;8.82;6.40;;;;;;;;;;4917063;28;20553;-71
2022/09/03 03:49:01;;;;;;;8.93;6.63;;;;;;;;;;4913663;28;20098;-71
2022/09/03 03:51:27;;;;;;;10.98;6.40;;;;;;;;;;4930494;28;20040;-71
2022/09/03 03:53:55;;;;;;;11.45;6.47;;;;;;;;;;4930183;28;20054;-70
2022/09/03 03:56:21;;;;;;;12.00;6.78;;;;;;;;;;4916691;28;20083;-71
2022/09/03 03:58:48;;;;;;;10.85;6.55;;;;;;;;;;4928299;28;20040;-71
2022/09/03 04:01:21;;;;;;;8.57;5.15;;;;;;;;;;4917014;28;20098;-71
2022/09/03 04:03:47;;;;;;;10.07;6.85;;;;;;;;;;4917746;28;20426;-71
2022/09/03 04:06:15;;;;;;;9.90;5.57;;;;;;;;;;4927945;28;20046;-74
2022/09/03 04:08:41;;;;;;;9.45;7.28;;;;;;;;;;4929116;28;20051;-72
2022/09/03 04:11:09;;;;;;;9.70;6.72;;;;;;;;;;4928596;28;20063;-71
2022/09/03 04:13:39;;;;;;;9.88;6.47;;;;;;;;;;4927794;28;20049;-71
2022/09/03 04:16:07;;;;;;;8.85;6.38;;;;;;;;;;4928769;28;20047;-72
2022/09/03 04:18:34;;;;;;;8.43;5.82;;;;;;;;;;4915765;28;20162;-71
2022/09/03 04:21:03;;;;;;;12.65;7.50;;;;;;;;;;4913377;28;20052;-71
2022/09/03 04:23:29;;;;;;;10.52;6.53;;;;;;;;;;4911658;28;20056;-71
2022/09/03 04:25:55;;;;;;;11.07;7.13;;;;;;;;;;4927674;28;20093;-71
2022/09/03 04:28:21;;;;;;;11.52;6.93;;;;;;;;;;4932962;28;20167;-70
2022/09/03 04:30:47;;;;;;;7.93;6.45;;;;;;;;;;4927514;28;20469;-71
2022/09/03 04:33:13;;;;;;;11.30;6.15;;;;;;;;;;4928493;28;20054;-71
2022/09/03 04:35:40;;;;;;;9.95;6.20;;;;;;;;;;4909278;28;20048;-71
2022/09/03 04:38:06;;;;;;;11.05;6.22;;;;;;;;;;4927609;28;20040;-71
2022/09/03 04:40:33;;;;;;;9.80;5.68;;;;;;;;;;4913144;28;20048;-71
2022/09/03 04:42:59;;;;;;;9.85;6.88;;;;;;;;;;4928371;28;20040;-70
2022/09/03 04:45:27;;;;;;;9.45;6.72;;;;;;;;;;4917285;28;20087;-71
2022/09/03 04:48:00;;;;;;;9.25;6.28;;;;;;;;;;4917381;28;20048;-71
2022/09/03 04:50:26;;;;;;;9.82;6.80;;;;;;;;;;4911523;28;20055;-71
2022/09/03 04:52:55;;;;;;;11.63;6.55;;;;;;;;;;4929112;28;20074;-71
2022/09/03 04:55:21;;;;;;;10.07;6.28;;;;;;;;;;4910915;28;20047;-71
2022/09/03 04:57:47;;;;;;;11.57;6.60;;;;;;;;;;4914415;28;20048;-71
2022/09/03 05:00:16;;;;;;;10.43;7.22;;;;;;;;;;4914848;28;20067;-71
2022/09/03 05:02:43;;;;;;;12.48;6.03;;;;;;;;;;4912133;28;20110;-71
2022/09/03 05:05:09;;;;;;;9.90;7.50;;;;;;;;;;4916636;28;20114;-71
2022/09/03 05:07:37;;;;;;;10.68;7.55;;;;;;;;;;4927934;28;20062;-71
2022/09/03 05:10:08;;;;;;;11.05;7.57;;;;;;;;;;4916177;28;20162;-71
2022/09/03 05:12:34;;;;;;;12.82;7.70;;;;;;;;;;4913930;28;20139;-71
2022/09/03 05:15:01;;;;;;;15.10;9.18;;;;;;;;;;4931020;28;20751;-71
2022/09/03 05:17:27;;;;;;;12.30;7.47;;;;;;;;;;4916573;28;20051;-71
2022/09/03 05:19:53;;;;;;;11.90;6.70;;;;;;;;;;4928963;28;20055;-71
2022/09/03 05:22:22;;;;;;;14.00;7.25;;;;;;;;;;4918645;28;20094;-71
2022/09/03 05:24:49;;;;;;;16.20;8.10;;;;;;;;;;4916596;28;20035;-72
2022/09/03 05:27:16;;;;;;;10.18;7.10;;;;;;;;;;4916505;28;20043;-72
2022/09/03 05:29:42;;;;;;;11.88;7.20;;;;;;;;;;4913429;28;20048;-72
2022/09/03 05:32:08;;;;;;;10.10;7.57;;;;;;;;;;4916841;28;20153;-71
2022/09/03 05:34:35;;;;;;;9.88;7.28;;;;;;;;;;4914275;28;20048;-71
2022/09/03 05:37:01;;;;;;;9.80;6.78;;;;;;;;;;4915087;28;20044;-72
2022/09/03 05:39:27;;;;;;;11.50;6.85;;;;;;;;;;4915614;28;20191;-70
2022/09/03 05:41:53;;;;;;;10.70;7.60;;;;;;;;;;4911418;28;21188;-71
2022/09/03 05:44:22;;;;;;;14.02;7.03;;;;;;;;;;4915613;28;20048;-72
2022/09/03 05:46:48;;;;;;;10.73;7.03;;;;;;;;;;4915308;28;20139;-71
2022/09/03 05:49:14;;;;;;;10.85;6.25;;;;;;;;;;4914876;28;20044;-70
2022/09/03 05:51:41;;;;;;;9.18;5.90;;;;;;;;;;4918167;28;20521;-71
2022/09/03 05:54:08;;;;;;;10.90;7.05;;;;;;;;;;4917399;28;20051;-70
2022/09/03 05:56:36;;;;;;;10.05;6.32;;;;;;;;;;4910155;28;20047;-71
2022/09/03 05:59:06;;;;;;;10.65;6.53;;;;;;;;;;4928509;28;20040;-71
2022/09/03 06:01:34;;;;;;;9.60;6.78;;;;;;;;;;4912081;28;20055;-71
2022/09/03 06:04:00;;;;;;;9.13;6.18;;;;;;;;;;4914467;28;20043;-71
2022/09/03 06:06:27;;;;;;;10.07;5.85;;;;;;;;;;4917562;28;20044;-71
2022/09/03 06:08:57;;;;;;;9.38;5.55;;;;;;;;;;4917865;28;20032;-71
2022/09/03 06:11:29;;;;;;;8.55;5.43;;;;;;;;;;4915799;28;20052;-70
2022/09/03 06:13:56;;;;;;;7.47;5.68;;;;;;;;;;4925332;28;20050;-72
2022/09/03 06:16:23;;;;;;;8.45;5.47;;;;;;;;;;4926159;28;20040;-70
2022/09/03 06:18:50;;;;;;;9.77;6.15;;;;;;;;;;4924797;28;20078;-70
2022/09/03 06:21:16;;;;;;;8.68;5.57;;;;;;;;;;4925376;28;20054;-70
2022/09/03 06:23:42;;;;;;;9.25;5.47;;;;;;;;;;4913678;28;20052;-71
2022/09/03 06:26:09;;;;;;;7.10;5.30;;;;;;;;;;4915970;28;20447;-70
2022/09/03 06:28:36;;;;;;;9.27;6.20;;;;;;;;;;4916867;28;20054;-71
2022/09/03 06:31:03;;;;;;;10.57;6.40;;;;;;;;;;4910072;28;20502;-71
2022/09/03 06:33:30;;;;;;;8.73;5.50;;;;;;;;;;4926479;28;21367;-71
2022/09/03 06:35:58;;;;;;;11.30;5.50;;;;;;;;;;4910819;28;20610;-70
2022/09/03 06:38:24;;;;;;;9.98;5.78;;;;;;;;;;4912887;28;20039;-70
2022/09/03 06:40:54;;;;;;;10.13;6.05;;;;;;;;;;4918909;28;20055;-71
2022/09/03 06:43:20;;;;;;;8.63;4.82;;;;;;;;;;4918929;28;20067;-70
2022/09/03 06:46:19;;;;;;;10.30;5.57;;;;;;;;;;4928325;28;20133;-71
2022/09/03 06:48:46;;;;;;;12.75;6.22;;;;;;;;;;4933016;28;20544;-71
2022/09/03 06:51:19;;;;;;;9.98;5.65;;;;;;;;;;4929261;28;20548;-72
2022/09/03 06:53:49;;;;;;;8.75;5.20;;;;;;;;;;4931039;28;20090;-71
2022/09/03 06:56:17;;;;;;;8.05;5.55;;;;;;;;;;4919202;28;20106;-70
2022/09/03 06:58:44;;;;;;;5.53;4.28;;;;;;;;;;4916797;28;20130;-70
2022/09/03 07:01:11;;;;;;;6.63;4.72;;;;;;;;;;4915755;28;20568;-70
2022/09/03 07:03:39;;;;;;;6.05;4.38;;;;;;;;;;4958338;28;21307;-70
2022/09/03 07:06:09;;;;;;;6.50;4.38;;;;;;;;;;4910789;28;20211;-70
2022/09/03 07:08:35;;;;;;;7.95;5.22;;;;;;;;;;4918470;28;20101;-71
2022/09/03 07:11:07;;;;;;;5.75;4.00;;;;;;;;;;4929368;28;20079;-70
2022/09/03 07:13:34;;;;;;;8.25;4.47;;;;;;;;;;4910938;28;20138;-71
2022/09/03 07:16:20;;;;;;;7.53;4.53;;;;;;;;;;4918703;28;20036;-71
2022/09/03 07:18:47;;;;;;;9.55;5.60;;;;;;;;;;4912158;28;20062;-75
2022/09/03 07:21:18;;;;;;;8.35;5.10;;;;;;;;;;4917075;28;20558;-70
2022/09/03 07:23:45;;;;;;;8.75;5.97;;;;;;;;;;4917104;28;20111;-71
2022/09/03 07:26:31;;;;;;;7.63;5.00;;;;;;;;;;4916919;28;20039;-70
2022/09/03 07:28:59;;;;;;;8.25;5.32;;;;;;;;;;4912120;28;20059;-70
2022/09/03 07:31:30;;;;;;;7.85;5.03;;;;;;;;;;4917150;28;20075;-70
2022/09/03 07:34:07;;;;;;;7.20;5.35;;;;;;;;;;4916631;28;20091;-70
2022/09/03 07:36:44;;;;;;;6.80;5.05;;;;;;;;;;4910971;28;20052;-71
2022/09/03 07:39:11;;;;;;;9.68;5.30;;;;;;;;;;4917910;28;20545;-71
2022/09/03 07:41:38;;;;;;;7.35;4.90;;;;;;;;;;4910313;28;20055;-70
2022/09/03 07:44:06;;;;;;;7.82;5.20;;;;;;;;;;4931217;28;20082;-71
2022/09/03 07:46:33;;;;;;;8.00;5.43;;;;;;;;;;4911600;28;20905;-70
2022/09/03 07:49:04;;;;;;;7.97;6.05;;;;;;;;;;4918093;28;20054;-71
2022/09/03 07:51:31;;;;;;;8.25;5.30;;;;;;;;;;4919295;28;20055;-71
2022/09/03 07:53:59;;;;;;;8.30;5.40;;;;;;;;;;4929948;28;20091;-71
2022/09/03 07:56:26;;;;;;;11.18;6.75;;;;;;;;;;4929524;28;20051;-71
2022/09/03 07:58:54;;;;;;;8.73;5.90;;;;;;;;;;4912558;28;20127;-73
2022/09/03 08:01:21;;;;;;;11.45;6.60;;;;;;;;;;4909105;28;20126;-70
2022/09/03 08:03:48;;;;;;;10.25;6.75;;;;;;;;;;4909811;28;20040;-70
2022/09/03 08:06:16;;;;;;;9.52;7.18;;;;;;;;;;4915841;28;20037;-69
2022/09/03 08:08:44;;;;;;;13.23;6.80;;;;;;;;;;4917608;28;20093;-70
2022/09/03 08:11:10;;;;;;;9.70;6.72;;;;;;;;;;4912355;28;20441;-70
2022/09/03 08:13:43;;;;;;;10.13;6.20;;;;;;;;;;4935426;28;20043;-70
2022/09/03 08:16:10;;;;;;;9.88;5.78;;;;;;;;;;4929199;28;20044;-70
2022/09/03 08:18:37;;;;;;;13.05;6.22;;;;;;;;;;4917784;28;20135;-70
2022/09/03 08:21:08;;;;;;;8.65;5.72;;;;;;;;;;4930273;28;20445;-72
2022/09/03 08:23:42;;;;;;;11.67;6.97;;;;;;;;;;4915424;28;20052;-73
2022/09/03 08:26:08;;;;;;;8.00;5.13;;;;;;;;;;4990730;28;20384;-70
2022/09/03 08:28:35;;;;;;;8.48;5.07;;;;;;;;;;4990688;28;20067;-71
2022/09/03 08:31:21;;;;;;;9.70;5.53;;;;;;;;;;4907637;28;20142;-71
2022/09/03 08:33:49;;;;;;;9.60;5.22;;;;;;;;;;4910081;28;20538;-71
2022/09/03 08:36:26;;;;;;;7.47;4.32;;;;;;;;;;4908231;28;20047;-71
2022/09/03 08:38:56;;;;;;;6.35;4.53;;;;;;;;;;4913317;28;20043;-70
2022/09/03 08:41:48;;;;;;;6.38;4.80;;;;;;;;;;4915023;28;20783;-71
2022/09/03 08:44:14;;;;;;;;;;;;;;;;;;4915113;28;20646;-71
2022/09/03 08:46:40;;;;;;;7.60;4.68;;;;;;;;;;4914039;28;19930;-71
2022/09/03 08:49:09;;;;;;;8.85;4.50;;;;;;;;;;4990382;28;20067;-70
2022/09/03 08:51:38;;;;;;;6.93;4.35;;;;;;;;;;4908847;28;20048;-71
2022/09/03 08:54:05;;;;;;;8.20;5.82;;;;;;;;;;4907879;28;20071;-71
2022/09/03 08:56:32;;;;;;;6.15;4.30;;;;;;;;;;4909348;28;20685;-70
2022/09/03 08:59:00;;;;;;;5.22;3.55;;;;;;;;;;4909012;28;20581;-71
2022/09/03 09:01:32;;;;;;;6.50;4.20;;;;;;;;;;4910133;28;20083;-70
2022/09/03 09:04:01;;;;;;;5.45;3.72;;;;;;;;;;4912620;28;20127;-70
2022/09/03 09:06:30;;;;;;;5.32;3.17;;;;;;;;;;4908732;28;20104;-70
2022/09/03 09:09:01;;;;;;;3.75;2.65;;;;;;;;;;4908576;28;20052;-71
2022/09/03 09:11:30;;;;;;;4.47;2.88;;;;;;;;;;4909733;28;20123;-71
2022/09/03 09:13:59;;;;;;;3.95;2.40;;;;;;;;;;4909899;28;20099;-71
2022/09/03 09:16:25;;;;;;;4.65;2.53;;;;;;;;;;4911214;28;20043;-71
2022/09/03 09:19:10;;;;;;;3.83;2.50;;;;;;;;;;4914708;28;20131;-75
2022/09/03 09:21:49;;;;;;;3.30;1.75;;;;;;;;;;4913784;28;20127;-71
2022/09/03 09:24:22;;;;;;;2.38;1.70;;;;;;;;;;4914208;28;20071;-71
2022/09/03 09:26:48;;;;;;;1.88;1.50;;;;;;;;;;4911250;28;20095;-70
2022/09/03 09:29:15;;;;;;;3.78;1.73;;;;;;;;;;4915758;28;20797;-72
2022/09/03 09:31:44;;;;;;;5.97;1.65;;;;;;;;;;4908248;28;20055;-70
2022/09/03 09:34:10;;;;;;;4.80;2.25;;;;;;;;;;4910130;28;20071;-71
2022/09/03 09:36:48;;;;;;;3.03;1.80;;;;;;;;;;4915265;28;20048;-71
2022/09/03 09:39:17;;;;;;;1.98;1.42;;;;;;;;;;4909038;28;20052;-71
2022/09/03 09:41:56;;;;;;;4.38;1.67;;;;;;;;;;4914598;28;20052;-70
2022/09/03 09:44:24;;;;;;;4.13;1.83;;;;;;;;;;4915593;28;20055;-70
2022/09/03 09:46:50;;;;;;;2.35;1.90;;;;;;;;;;4914271;28;20067;-71
2022/09/03 09:49:31;;;;;;;4.38;3.17;;;;;;;;;;4916065;28;20053;-71
2022/09/03 09:52:05;;;;;;;4.05;2.13;;;;;;;;;;4914360;28;20525;-71
2022/09/03 09:54:31;;;;;;;4.35;2.13;;;;;;;;;;4992254;28;20052;-71
2022/09/03 09:56:59;;;;;;;4.15;1.60;;;;;;;;;;4910517;28;20159;-71
2022/09/03 09:59:25;;;;;;;3.92;2.10;;;;;;;;;;4910289;28;20671;-71
2022/09/03 10:01:51;;;;;;;2.75;1.60;;;;;;;;;;4909428;28;20589;-71
2022/09/03 10:04:26;;;;;;;2.47;1.25;;;;;;;;;;4915901;28;20037;-71
2022/09/03 10:06:57;;;;;;;3.22;1.10;;;;;;;;;;4914908;28;20045;-70
2022/09/03 10:09:25;;;;;;;1.95;1.13;;;;;;;;;;4911198;28;20048;-70
2022/09/03 10:12:08;;;;;;;1.80;1.15;;;;;;;;;;4911721;28;20048;-70
2022/09/03 10:14:36;;;;;;;1.83;1.48;;;;;;;;;;4916989;28;20056;-71
2022/09/03 10:17:30;;;;;;;2.45;1.55;;;;;;;;;;4911914;28;20522;-71
2022/09/03 10:22:48;;;;;;;3.38;2.10;;;;;;;;;;4919951;28;20076;-70
2022/09/03 10:25:15;;;;;;;5.50;3.38;;;;;;;;;;4921992;28;20039;-70
2022/09/03 10:27:43;;;;;;;3.47;2.22;;;;;;;;;;4933999;28;20119;-70
2022/09/03 10:30:10;;;;;;;4.35;2.75;;;;;;;;;;4914888;28;20655;-70
2022/09/03 10:32:41;;;;;;;2.75;1.83;;;;;;;;;;4931393;28;20056;-70
2022/09/03 10:35:27;;;;;;;7.20;5.20;;;;;;;;;;4912378;28;20488;-70
2022/09/03 10:38:00;;;;;;;5.85;3.70;;;;;;;;;;4931840;28;20035;-70
2022/09/03 10:40:49;;;;;;;6.20;2.38;;;;;;;;;;4913074;28;20058;-70
2022/09/03 10:43:34;;;;;;;5.38;2.10;;;;;;;;;;4933975;28;20109;-70
2022/09/03 10:46:05;;;;;;;4.95;2.88;;;;;;;;;;4931005;28;20090;-70
2022/09/03 10:48:34;;;;;;;2.05;1.10;;;;;;;;;;4930525;28;20090;-70
2022/09/03 10:51:11;;;;;;;3.40;1.60;;;;;;;;;;4931294;28;20086;-70
2022/09/03 10:53:37;;;;;;;3.58;2.00;;;;;;;;;;4930622;28;20514;-70
2022/09/03 10:56:22;;;;;;;7.40;3.08;;;;;;;;;;4918986;28;20484;-70
2022/09/03 10:59:00;;;;;;;2.85;1.73;;;;;;;;;;4930782;28;20151;-70
2022/09/03 11:01:45;;;;;;;3.53;2.13;;;;;;;;;;4914497;28;20099;-71
2022/09/03 11:04:20;;;;;;;5.45;3.35;;;;;;;;;;4921200;28;20044;-70
2022/09/03 11:07:06;;;;;;;4.45;3.60;;;;;;;;;;4914162;28;20044;-70
2022/09/03 11:09:38;;;;;;;7.70;3.15;;;;;;;;;;4932011;28;20056;-70
2022/09/03 11:12:22;;;;;;;4.57;2.75;;;;;;;;;;4917676;28;20182;-73
2022/09/03 11:15:02;;;;;;;5.13;2.83;;;;;;;;;;4929160;28;20145;-78
2022/09/03 11:17:48;;;;;;;5.35;3.00;;;;;;;;;;4917110;28;20059;-73
2022/09/03 11:20:22;;;;;;;4.30;2.85;;;;;;;;;;4929761;28;20056;-72
2022/09/03 11:22:50;;;;;;;6.28;2.65;;;;;;;;;;4929116;28;20056;-78
2022/09/03 11:25:18;;;;;;;4.75;2.63;;;;;;;;;;4929414;28;20538;-78
2022/09/03 11:28:08;;;;;;;5.22;3.10;;;;;;;;;;4919084;28;20040;-76
2022/09/03 11:30:53;;;;;;;5.47;2.50;;;;;;;;;;4911706;28;20121;-72
2022/09/03 11:33:21;;;;;;;4.88;2.50;;;;;;;;;;4998939;28;20050;-71
2022/09/03 11:35:54;;;;;;;3.50;2.45;;;;;;;;;;4928253;28;20032;-69
2022/09/03 11:38:23;;;;;;;4.20;2.17;;;;;;;;;;4928489;28;20867;-69
2022/09/03 11:40:55;;;;;;;4.35;2.17;;;;;;;;;;4917241;28;20079;-77
2022/09/03 11:43:27;;;;;;;4.45;2.28;;;;;;;;;;4930114;28;20054;-71
2022/09/03 11:46:03;;;;;;;3.55;2.35;;;;;;;;;;4919235;28;20445;-78
2022/09/03 11:48:29;;;;;;;3.72;2.58;;;;;;;;;;4928533;28;20044;-81
2022/09/03 11:50:56;;;;;;;7.50;2.90;;;;;;;;;;5002133;28;20674;-75
2022/09/03 11:53:35;;;;;;;2.92;1.90;;;;;;;;;;4917895;28;20040;-80
2022/09/03 11:56:05;;;;;;;4.72;2.72;;;;;;;;;;4919179;28;20043;-73
2022/09/03 11:58:33;;;;;;;4.72;2.10;;;;;;;;;;4915040;28;20139;-73
2022/09/03 12:01:01;;;;;;;2.95;1.67;;;;;;;;;;4926647;28;20071;-73
2022/09/03 12:03:28;;;;;;;3.80;2.50;;;;;;;;;;4927799;28;20052;-79
2022/09/03 12:06:15;;;;;;;6.65;3.33;;;;;;;;;;4907201;28;20048;-72
2022/09/03 12:08:53;;;;;;;3.67;2.10;;;;;;;;;;4908971;28;20433;-73
2022/09/03 12:11:23;;;;;;;5.28;2.45;;;;;;;;;;4911084;28;20040;-71
2022/09/03 12:14:11;;;;;;;3.60;2.40;;;;;;;;;;4916035;28;20048;-72
2022/09/03 12:16:56;;;;;;;3.53;2.13;;;;;;;;;;4928725;28;20050;-72
2022/09/03 12:19:35;;;;;;;3.90;2.20;;;;;;;;;;4917028;28;20135;-72
2022/09/03 12:22:03;;;;;;;3.50;2.15;;;;;;;;;;4909561;28;20063;-72
2022/09/03 12:24:34;;;;;;;2.92;2.25;;;;;;;;;;4917703;28;20544;-72
2022/09/03 12:27:01;;;;;;;4.22;2.10;;;;;;;;;;4930418;28;20048;-72
2022/09/03 12:29:28;;;;;;;2.80;1.70;;;;;;;;;;4928333;28;21408;-72
2022/09/03 12:31:55;;;;;;;4.90;2.53;;;;;;;;;;4927527;28;20130;-72
2022/09/03 12:34:22;;;;;;;3.22;2.03;;;;;;;;;;4928957;28;20115;-72
2022/09/03 12:36:52;;;;;;;3.85;2.63;;;;;;;;;;4918057;28;20618;-71
2022/09/03 12:39:19;;;;;;;4.53;2.38;;;;;;;;;;4916158;28;20047;-72
2022/09/03 12:41:54;;;;;;;2.97;2.00;;;;;;;;;;4928896;28;20117;-72
2022/09/03 12:44:28;;;;;;;5.78;2.58;;;;;;;;;;4928002;28;20105;-71
2022/09/03 12:47:20;;;;;;;5.32;2.15;;;;;;;;;;4927688;28;20062;-73
2022/09/03 12:49:50;;;;;;;2.75;2.00;;;;;;;;;;4927672;28;20189;-71
2022/09/03 12:52:16;;;;;;;3.42;2.22;;;;;;;;;;4918072;28;20051;-71
2022/09/03 12:54:48;;;;;;;4.47;2.70;;;;;;;;;;4917058;28;20044;-71
2022/09/03 12:57:14;;;;;;;;;;;;;;;;;;4918448;28;20433;-73
2022/09/03 12:59:40;;;;;;;3.40;2.63;;;;;;;;;;4915624;28;19923;-70
2022/09/03 13:02:36;;;;;;;4.18;2.97;;;;;;;;;;4926813;28;20039;-70
2022/09/03 13:05:02;;;;;;;4.47;2.47;;;;;;;;;;4905027;28;20043;-71
2022/09/03 13:07:37;;;;;;;3.83;2.78;;;;;;;;;;4927448;28;20075;-71
2022/09/03 13:10:07;;;;;;;3.15;2.13;;;;;;;;;;4928751;28;20050;-72
2022/09/03 13:12:46;;;;;;;8.65;2.33;;;;;;;;;;4929328;28;20118;-71
2022/09/03 13:15:19;;;;;;;3.55;2.35;;;;;;;;;;4927296;28;20040;-71
2022/09/03 13:17:46;;;;;;;3.15;2.10;;;;;;;;;;4916236;28;20062;-71
2022/09/03 13:20:15;;;;;;;2.85;1.92;;;;;;;;;;4913824;28;20082;-71
2022/09/03 13:23:00;;;;;;;4.47;2.40;;;;;;;;;;4925686;28;20052;-71
2022/09/03 13:25:37;;;;;;;3.08;2.40;;;;;;;;;;4924232;28;20048;-71
2022/09/03 13:28:15;;;;;;;4.53;2.70;;;;;;;;;;4926416;28;20063;-71
2022/09/03 13:30:57;;;;;;;3.40;2.17;;;;;;;;;;4925067;28;20111;-80
2022/09/03 13:33:23;;;;;;;4.65;2.50;;;;;;;;;;4928231;28;20051;-72
2022/09/03 13:35:49;;;;;;;2.53;1.80;;;;;;;;;;4927673;28;20580;-71
2022/09/03 13:38:25;;;;;;;2.78;2.03;;;;;;;;;;4907268;28;20545;-71
2022/09/03 13:40:54;;;;;;;4.47;1.85;;;;;;;;;;4927390;28;20137;-71
2022/09/03 13:43:20;;;;;;;5.97;2.30;;;;;;;;;;4927250;28;20909;-71
2022/09/03 13:46:06;;;;;;;3.40;2.20;;;;;;;;;;4927246;28;20111;-71
2022/09/03 13:51:22;;;;;;;4.68;2.17;;;;;;;;;;4928306;28;20075;-72
2022/09/03 13:53:57;;;;;;;3.85;2.58;;;;;;;;;;4917799;28;20078;-71
2022/09/03 13:56:26;;;;;;;3.72;1.90;;;;;;;;;;4928929;28;20044;-71
2022/09/03 13:59:21;;;;;;;7.18;2.33;;;;;;;;;;4912834;28;20048;-71
2022/09/03 14:01:47;;;;;;;4.95;2.47;;;;;;;;;;4912910;28;20056;-71
2022/09/03 14:04:29;;;;;;;2.83;2.13;;;;;;;;;;4914468;28;20046;-71
2022/09/03 14:07:01;;;;;;;8.27;3.03;;;;;;;;;;4918600;28;20119;-71
2022/09/03 14:09:33;;;;;;;4.28;2.55;;;;;;;;;;4919413;28;20055;-71
2022/09/03 14:12:05;;;;;;;4.00;2.75;;;;;;;;;;4926720;28;20040;-70
2022/09/03 14:14:39;;;;;;;4.78;2.15;;;;;;;;;;4913619;28;20142;-71
2022/09/03 14:17:11;;;;;;;5.15;2.25;;;;;;;;;;4912555;28;20055;-71
2022/09/03 14:19:37;;;;;;;4.57;3.10;;;;;;;;;;4929965;28;20194;-71
2022/09/03 14:22:30;;;;;;;6.30;2.75;;;;;;;;;;4929232;28;20074;-71
2022/09/03 14:25:04;;;;;;;3.95;2.10;;;;;;;;;;4938865;28;20488;-72
2022/09/03 14:27:31;;;;;;;4.18;2.45;;;;;;;;;;4929429;28;20099;-71
2022/09/03 14:30:01;;;;;;;4.35;2.53;;;;;;;;;;4927963;28;20054;-76
2022/09/03 14:32:30;;;;;;;3.60;2.13;;;;;;;;;;4913919;28;20040;-71
2022/09/03 14:34:56;;;;;;;3.92;2.63;;;;;;;;;;4929212;28;20072;-71
2022/09/03 14:37:37;;;;;;;5.95;3.10;;;;;;;;;;4916938;28;20072;-71
2022/09/03 14:40:04;;;;;;;3.45;2.42;;;;;;;;;;4919383;28;20048;-70
2022/09/03 14:42:39;;;;;;;3.80;2.47;;;;;;;;;;4919168;28;20063;-71
2022/09/03 14:45:22;;;;;;;4.28;2.65;;;;;;;;;;4929961;28;20106;-71
2022/09/03 14:48:01;;;;;;;3.67;2.85;;;;;;;;;;4918709;28;20102;-71
2022/09/03 14:50:33;;;;;;;4.75;2.88;;;;;;;;;;4931108;28;20068;-71
2022/09/03 14:53:05;;;;;;;4.05;2.97;;;;;;;;;;4929604;28;20083;-71
2022/09/03 14:55:51;;;;;;;4.13;2.45;;;;;;;;;;4920090;28;20749;-72
2022/09/03 14:58:21;;;;;;;3.75;2.42;;;;;;;;;;4912496;28;20075;-71
2022/09/03 15:01:01;;;;;;;4.72;2.75;;;;;;;;;;4917228;28;20098;-71
2022/09/03 15:03:46;;;;;;;3.58;2.45;;;;;;;;;;4930802;28;20040;-72
2022/09/03 15:06:24;;;;;;;3.75;2.28;;;;;;;;;;4929727;28;20039;-71
2022/09/03 15:08:55;;;;;;;3.10;2.00;;;;;;;;;;4912422;28;20040;-71
2022/09/03 15:11:23;;;;;;;4.10;2.60;;;;;;;;;;4929544;28;20075;-70